createdAt,value
2018-05-14T00:01:19.060Z,0.00
2018-05-14T00:02:50.871Z,0.00
2018-05-14T00:04:22.933Z,0.00
2018-05-14T00:05:54.494Z,0.00
2018-05-14T00:07:26.306Z,0.00
2018-05-14T00:08:58.118Z,0.00
2018-05-14T00:10:30.079Z,0.00
2018-05-14T00:12:01.741Z,0.00
2018-05-14T00:13:33.553Z,0.00
2018-05-14T00:15:05.365Z,0.00
2018-05-14T00:16:37.276Z,0.00
2018-05-14T00:18:08.988Z,0.00
2018-05-14T00:19:40.798Z,0.00
2018-05-14T00:21:12.610Z,0.00
2018-05-14T00:22:44.421Z,0.00
2018-05-14T00:24:16.233Z,0.00
2018-05-14T00:25:48.044Z,0.00
2018-05-14T00:27:19.855Z,0.00
2018-05-14T00:28:51.668Z,0.00
2018-05-14T00:30:23.478Z,0.00
2018-05-14T00:31:55.289Z,0.00
2018-05-14T00:33:27.101Z,0.00
2018-05-14T00:34:59.413Z,0.00
2018-05-14T00:36:30.723Z,0.00
2018-05-14T00:38:02.537Z,0.00
2018-05-14T00:39:34.347Z,0.00
2018-05-14T00:41:06.159Z,0.00
2018-05-14T00:42:37.970Z,0.00
2018-05-14T00:44:09.782Z,0.00
2018-05-14T00:45:41.593Z,0.00
2018-05-14T00:47:13.405Z,0.00
2018-05-14T00:48:45.251Z,0.00
2018-05-14T00:50:17.028Z,0.00
2018-05-14T00:51:48.840Z,0.00
2018-05-14T00:53:20.752Z,0.00
2018-05-14T00:54:52.464Z,0.00
2018-05-14T00:56:24.275Z,0.00
2018-05-14T00:57:56.087Z,0.00
2018-05-14T00:59:27.898Z,0.00
2018-05-14T01:00:59.714Z,0.00
2018-05-14T01:02:31.522Z,0.00
2018-05-14T01:04:03.334Z,0.00
2018-05-14T01:05:35.147Z,0.00
2018-05-14T01:07:06.957Z,0.00
2018-05-14T01:08:38.813Z,0.00
2018-05-14T01:10:10.591Z,0.00
2018-05-14T01:11:42.493Z,0.00
2018-05-14T01:13:14.204Z,0.00
2018-05-14T01:14:46.016Z,0.00
2018-05-14T01:16:52.540Z,0.00
2018-05-14T01:17:49.638Z,0.00
2018-05-14T01:19:21.452Z,0.00
2018-05-14T01:20:53.261Z,0.00
2018-05-14T01:22:25.072Z,0.00
2018-05-14T01:23:56.884Z,0.00
2018-05-14T01:25:28.694Z,0.00
2018-05-14T01:27:00.506Z,0.00
2018-05-14T01:28:32.618Z,0.00
2018-05-14T01:30:04.132Z,0.00
2018-05-14T01:31:35.941Z,0.00
2018-05-14T01:33:07.756Z,0.00
2018-05-14T01:34:39.664Z,0.00
2018-05-14T01:36:11.375Z,0.00
2018-05-14T01:37:43.186Z,0.00
2018-05-14T01:39:14.998Z,0.00
2018-05-14T01:41:00.977Z,0.00
2018-05-14T01:42:18.626Z,0.00
2018-05-14T01:43:50.431Z,0.00
2018-05-14T01:45:22.243Z,0.00
2018-05-14T01:46:54.154Z,0.00
2018-05-14T01:48:26.472Z,0.00
2018-05-14T01:49:57.679Z,0.00
2018-05-14T01:51:55.773Z,0.00
2018-05-14T01:53:01.302Z,0.00
2018-05-14T01:54:33.105Z,0.00
2018-05-14T01:56:04.916Z,0.00
2018-05-14T01:57:36.730Z,0.00
2018-05-14T01:59:08.641Z,0.00
2018-05-14T02:00:40.354Z,0.00
2018-05-14T02:02:13.238Z,0.00
2018-05-14T02:03:43.995Z,0.00
2018-05-14T02:05:15.889Z,0.00
2018-05-14T02:06:47.675Z,0.00
2018-05-14T02:08:19.411Z,0.00
2018-05-14T02:09:51.223Z,0.00
2018-05-14T02:11:23.185Z,0.00
2018-05-14T02:12:54.847Z,0.00
2018-05-14T02:14:26.657Z,0.00
2018-05-14T02:15:58.467Z,0.00
2018-05-14T02:17:30.278Z,0.00
2018-05-14T02:19:02.090Z,0.00
2018-05-14T02:20:33.900Z,0.00
2018-05-14T02:22:05.715Z,0.00
2018-05-14T02:23:37.622Z,0.00
2018-05-14T02:25:09.334Z,0.00
2018-05-14T02:26:41.145Z,0.00
2018-05-14T02:28:12.956Z,0.00
2018-05-14T02:29:44.867Z,0.00
2018-05-14T02:31:16.580Z,0.00
2018-05-14T02:32:48.392Z,0.00
2018-05-14T02:34:20.201Z,0.00
2018-05-14T02:35:52.013Z,0.00
2018-05-14T02:37:23.823Z,0.00
2018-05-14T02:38:55.633Z,0.00
2018-05-14T02:40:27.445Z,0.00
2018-05-14T02:41:59.357Z,0.00
2018-05-14T02:43:31.068Z,0.00
2018-05-14T02:45:02.877Z,0.00
2018-05-14T02:46:34.689Z,0.00
2018-05-14T02:48:06.501Z,0.00
2018-05-14T02:49:38.371Z,0.00
2018-05-14T02:51:10.929Z,0.00
2018-05-14T02:52:41.941Z,0.00
2018-05-14T02:54:13.746Z,0.00
2018-05-14T02:55:45.567Z,0.00
2018-05-14T02:57:17.367Z,0.00
2018-05-14T02:58:49.191Z,0.00
2018-05-14T03:00:21.193Z,0.00
2018-05-14T03:01:52.800Z,0.00
2018-05-14T03:03:24.611Z,0.00
2018-05-14T03:04:56.658Z,0.00
2018-05-14T03:06:28.235Z,0.00
2018-05-14T03:08:00.047Z,0.00
2018-05-14T03:09:31.856Z,0.00
2018-05-14T03:11:03.668Z,0.00
2018-05-14T03:12:35.479Z,0.00
2018-05-14T03:14:07.291Z,0.00
2018-05-14T03:15:39.106Z,0.00
2018-05-14T03:17:10.915Z,0.00
2018-05-14T03:18:42.824Z,0.00
2018-05-14T03:20:14.534Z,0.00
2018-05-14T03:23:25.030Z,0.00
2018-05-14T03:26:22.389Z,0.00
2018-05-14T03:27:53.591Z,0.00
2018-05-14T03:29:26.295Z,0.00
2018-05-14T03:32:29.631Z,0.00
2018-05-14T03:34:00.836Z,0.00
2018-05-14T03:35:32.647Z,0.00
2018-05-14T03:37:05.639Z,0.00
2018-05-14T03:38:36.270Z,0.00
2018-05-14T03:40:08.080Z,0.00
2018-05-14T03:41:39.891Z,0.00
2018-05-14T03:43:11.707Z,0.00
2018-05-14T03:44:43.514Z,0.00
2018-05-14T03:46:15.324Z,0.00
2018-05-14T03:47:47.135Z,0.00
2018-05-14T03:49:18.945Z,0.00
2018-05-14T03:50:50.757Z,0.00
2018-05-14T03:52:22.568Z,0.00
2018-05-14T03:53:54.378Z,0.00
2018-05-14T03:55:26.290Z,0.00
2018-05-14T03:56:58.000Z,0.00
2018-05-14T03:58:29.810Z,0.00
2018-05-14T04:00:01.620Z,0.00
2018-05-14T04:01:33.531Z,0.00
2018-05-14T04:03:05.246Z,0.00
2018-05-14T04:04:37.052Z,0.00
2018-05-14T04:06:08.863Z,0.00
2018-05-14T04:07:40.673Z,0.00
2018-05-14T04:11:09.969Z,0.00
2018-05-14T04:12:16.106Z,0.00
2018-05-14T04:13:48.168Z,0.00
2018-05-14T04:15:19.728Z,0.00
2018-05-14T04:16:51.542Z,0.00
2018-05-14T04:18:23.351Z,0.00
2018-05-14T04:19:55.161Z,0.00
2018-05-14T04:21:26.972Z,0.00
2018-05-14T04:22:58.783Z,0.00
2018-05-14T04:24:30.607Z,0.00
2018-05-14T04:26:02.411Z,0.00
2018-05-14T04:27:34.216Z,0.00
2018-05-14T04:29:06.027Z,0.00
2018-05-14T04:30:37.839Z,0.00
2018-05-14T04:32:09.850Z,0.00
2018-05-14T04:33:41.470Z,0.00
2018-05-14T04:35:13.271Z,0.00
2018-05-14T04:36:45.082Z,0.00
2018-05-14T04:38:16.899Z,0.00
2018-05-14T04:39:48.705Z,0.00
2018-05-14T04:41:20.516Z,0.00
2018-05-14T04:42:52.332Z,0.00
2018-05-14T04:44:24.239Z,0.00
2018-05-14T04:45:56.421Z,0.00
2018-05-14T04:47:27.974Z,0.00
2018-05-14T04:48:59.572Z,0.00
2018-05-14T04:50:31.484Z,0.00
2018-05-14T04:52:03.195Z,0.00
2018-05-14T04:53:35.006Z,0.00
2018-05-14T04:55:06.818Z,0.00
2018-05-14T04:56:38.627Z,0.00
2018-05-14T04:58:10.439Z,0.00
2018-05-14T04:59:42.250Z,0.00
2018-05-14T05:01:14.061Z,0.00
2018-05-14T05:02:45.972Z,0.00
2018-05-14T05:05:50.100Z,0.00
2018-05-14T05:07:21.304Z,0.00
2018-05-14T05:08:53.216Z,0.00
2018-05-14T05:10:24.964Z,0.00
2018-05-14T05:11:56.737Z,0.00
2018-05-14T05:13:28.548Z,0.00
2018-05-14T05:15:00.610Z,0.00
2018-05-14T05:16:32.170Z,0.00
2018-05-14T05:18:03.980Z,0.00
2018-05-14T05:19:35.791Z,0.00
2018-05-14T05:21:07.752Z,0.00
2018-05-14T05:22:39.416Z,0.00
2018-05-14T05:24:11.223Z,0.00
2018-05-14T05:25:43.034Z,0.00
2018-05-14T05:27:14.947Z,0.00
2018-05-14T05:28:53.863Z,0.00
2018-05-14T05:30:19.004Z,0.00
2018-05-14T05:31:50.277Z,0.00
2018-05-14T05:33:22.186Z,0.00
2018-05-14T05:34:53.897Z,0.00
2018-05-14T05:36:25.707Z,0.00
2018-05-14T05:37:57.604Z,0.00
2018-05-14T05:41:01.745Z,0.00
2018-05-14T05:42:32.948Z,0.00
2018-05-14T05:44:04.758Z,0.00
2018-05-14T05:45:36.669Z,0.00
2018-05-14T05:47:08.385Z,0.00
2018-05-14T05:48:40.193Z,0.00
2018-05-14T05:50:11.998Z,0.00
2018-05-14T05:51:43.808Z,0.00
2018-05-14T05:53:15.619Z,0.00
2018-05-14T05:54:47.430Z,0.00
2018-05-14T05:56:19.243Z,0.00
2018-05-14T05:57:51.049Z,0.00
2018-05-14T05:59:22.859Z,0.00
2018-05-14T06:00:54.671Z,0.00
2018-05-14T06:02:26.478Z,0.00
2018-05-14T06:03:58.589Z,0.00
2018-05-14T06:05:30.099Z,0.00
2018-05-14T06:07:02.784Z,0.00
2018-05-14T06:08:33.718Z,0.00
2018-05-14T06:10:05.528Z,0.00
2018-05-14T06:11:37.338Z,0.00
2018-05-14T06:13:09.149Z,0.00
2018-05-14T06:14:40.957Z,0.00
2018-05-14T06:16:13.018Z,0.00
2018-05-14T06:17:44.577Z,0.00
2018-05-14T06:19:16.387Z,0.00
2018-05-14T06:20:48.197Z,0.00
2018-05-14T06:22:20.157Z,0.00
2018-05-14T06:23:51.818Z,0.00
2018-05-14T06:25:23.628Z,0.00
2018-05-14T06:26:55.437Z,0.00
2018-05-14T06:28:27.246Z,0.00
2018-05-14T06:29:59.056Z,0.00
2018-05-14T06:31:30.867Z,0.00
2018-05-14T06:33:02.679Z,0.00
2018-05-14T06:34:34.587Z,0.00
2018-05-14T06:36:06.299Z,0.00
2018-05-14T06:37:38.108Z,0.00
2018-05-14T06:39:10.445Z,0.00
2018-05-14T06:40:42.027Z,0.00
2018-05-14T06:42:13.537Z,0.00
2018-05-14T06:43:45.348Z,0.00
2018-05-14T06:45:17.155Z,0.00
2018-05-14T06:46:49.215Z,0.00
2018-05-14T06:48:20.775Z,0.00
2018-05-14T06:49:52.603Z,0.00
2018-05-14T06:51:24.395Z,0.00
2018-05-14T06:52:56.205Z,0.00
2018-05-14T06:54:28.016Z,0.00
2018-05-14T06:55:59.826Z,0.00
2018-05-14T06:57:31.635Z,0.00
2018-05-14T06:59:03.548Z,0.00
2018-05-14T07:00:35.256Z,0.00
2018-05-14T07:02:07.071Z,0.00
2018-05-14T07:03:38.877Z,0.00
2018-05-14T07:05:10.788Z,0.00
2018-05-14T07:06:42.498Z,0.00
2018-05-14T07:08:14.850Z,0.00
2018-05-14T07:09:46.120Z,0.00
2018-05-14T07:11:17.931Z,0.00
2018-05-14T07:12:49.741Z,0.00
2018-05-14T07:14:21.551Z,0.00
2018-05-14T07:15:53.361Z,0.00
2018-05-14T07:17:25.272Z,0.00
2018-05-14T07:18:56.983Z,0.00
2018-05-14T07:20:28.793Z,0.00
2018-05-14T07:22:00.604Z,0.00
2018-05-14T07:23:32.416Z,0.00
2018-05-14T07:25:04.233Z,0.00
2018-05-14T07:26:36.037Z,0.00
2018-05-14T07:28:07.847Z,0.00
2018-05-14T07:29:39.660Z,0.00
2018-05-14T07:31:11.468Z,0.00
2018-05-14T07:32:43.279Z,0.00
2018-05-14T07:34:15.093Z,0.00
2018-05-14T07:35:47.102Z,0.00
2018-05-14T07:37:18.717Z,0.00
2018-05-14T07:38:50.525Z,0.00
2018-05-14T07:40:22.362Z,0.00
2018-05-14T07:41:54.142Z,0.00
2018-05-14T07:43:25.953Z,0.00
2018-05-14T07:44:57.763Z,0.00
2018-05-14T07:46:29.574Z,0.00
2018-05-14T07:48:01.638Z,0.00
2018-05-14T07:49:33.194Z,0.00
2018-05-14T07:51:05.005Z,0.00
2018-05-14T07:52:40.455Z,0.00
2018-05-14T07:55:41.044Z,0.00
2018-05-14T07:57:12.247Z,0.00
2018-05-14T07:58:44.056Z,0.00
2018-05-14T08:00:15.920Z,0.00
2018-05-14T08:01:47.678Z,0.00
2018-05-14T08:03:19.487Z,0.00
2018-05-14T08:04:51.298Z,0.00
2018-05-14T08:06:23.209Z,0.00
2018-05-14T08:09:27.338Z,0.00
2018-05-14T08:10:58.539Z,0.00
2018-05-14T08:12:30.650Z,0.00
2018-05-14T08:14:02.161Z,0.00
2018-05-14T08:15:40.852Z,0.00
2018-05-14T08:17:05.782Z,0.00
2018-05-14T08:18:37.844Z,0.00
2018-05-14T08:20:09.402Z,0.00
2018-05-14T08:21:41.211Z,0.00
2018-05-14T08:23:13.023Z,0.00
2018-05-14T08:24:44.837Z,0.00
2018-05-14T08:26:16.643Z,0.00
2018-05-14T08:27:48.455Z,0.00
2018-05-14T08:29:20.272Z,0.00
2018-05-14T08:30:52.174Z,0.00
2018-05-14T08:32:23.885Z,0.00
2018-05-14T08:33:55.696Z,0.00
2018-05-14T08:35:27.510Z,0.00
2018-05-14T08:36:59.416Z,0.00
2018-05-14T08:38:31.127Z,0.00
2018-05-14T08:40:02.939Z,0.00
2018-05-14T08:41:34.747Z,0.00
2018-05-14T08:43:06.708Z,0.00
2018-05-14T08:44:38.368Z,0.00
2018-05-14T08:46:10.179Z,0.00
2018-05-14T08:47:41.991Z,0.00
2018-05-14T08:49:13.902Z,0.00
2018-05-14T08:50:45.610Z,0.00
2018-05-14T08:52:18.904Z,0.00
2018-05-14T08:53:49.228Z,0.00
2018-05-14T08:55:21.043Z,0.00
2018-05-14T08:56:52.849Z,0.00
2018-05-14T08:58:24.660Z,0.00
2018-05-14T08:59:56.470Z,0.00
2018-05-14T09:01:28.281Z,0.00
2018-05-14T09:03:00.094Z,0.00
2018-05-14T09:04:45.529Z,0.00
2018-05-14T09:06:03.713Z,0.00
2018-05-14T09:09:09.908Z,0.00
2018-05-14T09:10:39.145Z,4.00
2018-05-14T09:12:10.958Z,8.00
2018-05-14T09:13:42.766Z,8.00
2018-05-14T09:15:14.577Z,16.00
2018-05-14T09:16:47.971Z,20.00
2018-05-14T09:18:18.197Z,24.00
2018-05-14T09:19:50.008Z,40.00
2018-05-14T09:21:21.918Z,56.00
2018-05-14T09:22:55.928Z,76.00
2018-05-14T09:24:25.440Z,108.00
2018-05-14T09:25:58.292Z,148.00
2018-05-14T09:29:03.903Z,240.00
2018-05-14T09:30:32.891Z,316.00
2018-05-14T09:32:04.491Z,392.00
2018-05-14T09:33:36.301Z,472.00
2018-05-14T09:35:08.111Z,560.00
2018-05-14T09:36:39.927Z,668.00
2018-05-14T09:38:11.735Z,784.00
2018-05-14T09:39:43.645Z,900.00
2018-05-14T09:41:15.354Z,1024.00
2018-05-14T09:42:47.163Z,1156.00
2018-05-14T09:44:18.976Z,1296.00
2018-05-14T09:45:50.937Z,1492.00
2018-05-14T09:47:22.594Z,1748.00
2018-05-14T09:48:54.403Z,1952.00
2018-05-14T09:50:26.308Z,2152.00
2018-05-14T09:51:58.124Z,2372.00
2018-05-14T09:53:29.835Z,2620.00
2018-05-14T09:55:01.645Z,2904.00
2018-05-14T09:56:33.456Z,3156.00
2018-05-14T09:58:05.268Z,3400.00
2018-05-14T09:59:37.078Z,3624.00
2018-05-14T10:01:08.892Z,3812.00
2018-05-14T10:02:40.701Z,3996.00
2018-05-14T10:04:12.611Z,4248.00
2018-05-14T10:05:44.322Z,4564.00
2018-05-14T10:07:16.134Z,4852.00
2018-05-14T10:08:47.946Z,4952.00
2018-05-14T10:10:19.858Z,4492.00
2018-05-14T10:11:51.573Z,5280.00
2018-05-14T10:13:23.383Z,6144.00
2018-05-14T10:14:55.195Z,6100.00
2018-05-14T10:16:27.005Z,6028.00
2018-05-14T10:17:58.818Z,4188.00
2018-05-14T10:19:30.703Z,4148.00
2018-05-14T10:21:02.442Z,4368.00
2018-05-14T10:22:34.355Z,4468.00
2018-05-14T10:24:06.067Z,4608.00
2018-05-14T10:25:37.883Z,4900.00
2018-05-14T10:27:09.689Z,4628.00
2018-05-14T10:28:41.501Z,4588.00
2018-05-14T10:30:13.314Z,4500.00
2018-05-14T10:31:45.126Z,4256.00
2018-05-14T10:33:16.936Z,3920.00
2018-05-14T10:34:48.749Z,4028.00
2018-05-14T10:36:20.558Z,3928.00
2018-05-14T10:39:24.785Z,4368.00
2018-05-14T10:40:56.190Z,5392.00
2018-05-14T10:42:27.799Z,5784.00
2018-05-14T10:45:32.033Z,5920.00
2018-05-14T10:47:03.235Z,6400.00
2018-05-14T10:48:35.046Z,6104.00
2018-05-14T10:50:06.857Z,6180.00
2018-05-14T10:51:38.672Z,6308.00
2018-05-14T10:53:10.485Z,6404.00
2018-05-14T11:01:01.964Z,8508.00
2018-05-14T11:02:33.173Z,8852.00
2018-05-14T11:05:37.398Z,9120.00
2018-05-14T11:07:12.268Z,9456.00
2018-05-14T11:08:40.414Z,9212.00
2018-05-14T11:10:13.522Z,9472.00
2018-05-14T11:11:44.037Z,10736.00
2018-05-14T11:13:15.854Z,10100.00
2018-05-14T11:16:20.183Z,12520.00
2018-05-14T11:17:52.436Z,11880.00
2018-05-14T11:19:29.417Z,12212.00
2018-05-14T11:20:55.115Z,9820.00
2018-05-14T11:22:26.725Z,11352.00
2018-05-14T11:23:58.541Z,10700.00
2018-05-14T11:25:34.723Z,9668.00
2018-05-14T11:27:02.162Z,9976.00
2018-05-14T11:28:33.977Z,10100.00
2018-05-14T11:30:05.787Z,10612.00
2018-05-14T11:31:37.600Z,10576.00
2018-05-14T11:33:09.465Z,9756.00
2018-05-14T11:34:41.326Z,10316.00
2018-05-14T11:36:13.038Z,11600.00
2018-05-14T11:37:45.053Z,12640.00
2018-05-14T11:39:16.666Z,12992.00
2018-05-14T11:40:48.476Z,13688.00
2018-05-14T11:42:20.314Z,14304.00
2018-05-14T11:43:52.162Z,14436.00
2018-05-14T11:45:23.913Z,14880.00
2018-05-14T11:46:55.728Z,20064.00
2018-05-14T11:48:27.540Z,22656.00
2018-05-14T11:49:59.376Z,19008.00
2018-05-14T11:51:31.194Z,43744.00
2018-05-14T11:56:06.609Z,28128.00
2018-05-14T11:57:38.426Z,15012.00
2018-05-14T11:59:10.238Z,27040.00
2018-05-14T12:00:42.693Z,40032.00
2018-05-14T12:02:13.869Z,48160.00
2018-05-14T12:03:45.684Z,18848.00
2018-05-14T12:05:17.501Z,50880.00
2018-05-14T12:06:49.317Z,21312.00
2018-05-14T12:08:21.133Z,31680.00
2018-05-14T12:12:56.784Z,17696.00
2018-05-14T12:14:28.401Z,21952.00
2018-05-14T12:16:00.253Z,18656.00
2018-05-14T12:17:32.039Z,24000.00
2018-05-14T12:19:03.852Z,20544.00
2018-05-14T12:20:35.669Z,26784.00
2018-05-14T12:23:39.354Z,19808.00
2018-05-14T12:25:11.126Z,21184.00
2018-05-14T12:26:43.445Z,16736.00
2018-05-14T12:28:14.757Z,29632.00
2018-05-14T12:29:46.876Z,20352.00
2018-05-14T12:31:18.489Z,29600.00
2018-05-14T12:32:50.721Z,25184.00
2018-05-14T12:34:22.023Z,27936.00
2018-05-14T12:35:56.245Z,22720.00
2018-05-14T12:37:25.716Z,25792.00
2018-05-14T12:40:29.288Z,24384.00
2018-05-14T12:42:01.139Z,24544.00
2018-05-14T12:43:33.022Z,20576.00
2018-05-14T12:45:04.755Z,22304.00
2018-05-14T12:46:36.757Z,17664.00
2018-05-14T12:48:08.800Z,19616.00
2018-05-14T12:49:40.591Z,20064.00
2018-05-14T12:51:13.924Z,19872.00
2018-05-14T12:52:44.555Z,17952.00
2018-05-14T12:54:15.635Z,23520.00
2018-05-14T12:55:47.762Z,22304.00
2018-05-14T12:57:19.323Z,32160.00
2018-05-14T12:58:51.083Z,22112.00
2018-05-14T13:00:22.900Z,20704.00
2018-05-14T13:01:55.022Z,19520.00
2018-05-14T13:04:58.346Z,22176.00
2018-05-14T13:06:30.200Z,20992.00
2018-05-14T13:08:02.129Z,19968.00
2018-05-14T13:09:33.860Z,20800.00
2018-05-14T13:11:05.609Z,25472.00
2018-05-14T13:12:37.427Z,30944.00
2018-05-14T13:14:09.245Z,24096.00
2018-05-14T13:15:41.256Z,25056.00
2018-05-14T13:17:12.876Z,23552.00
2018-05-14T13:18:44.689Z,26464.00
2018-05-14T13:21:48.627Z,23264.00
2018-05-14T13:23:20.136Z,26368.00
2018-05-14T13:26:23.771Z,47232.00
2018-05-14T13:27:55.588Z,26048.00
2018-05-14T13:30:59.830Z,23040.00
2018-05-14T13:32:31.041Z,29952.00
2018-05-14T13:35:34.781Z,30336.00
2018-05-14T13:37:07.136Z,31616.00
2018-05-14T13:38:41.893Z,33824.00
2018-05-14T13:40:10.231Z,36960.00
2018-05-14T13:41:41.951Z,35456.00
2018-05-14T13:43:13.768Z,40512.00
2018-05-14T13:44:45.588Z,27680.00
2018-05-14T13:46:17.461Z,42752.00
2018-05-14T13:47:49.230Z,22912.00
2018-05-14T13:49:21.338Z,21568.00
2018-05-14T13:51:00.084Z,23232.00
2018-05-14T13:52:24.690Z,24672.00
2018-05-14T13:57:03.196Z,42752.00
2018-05-14T13:58:31.969Z,37504.00
2018-05-14T14:00:03.794Z,29248.00
2018-05-14T14:01:35.610Z,37088.00
2018-05-14T14:04:39.402Z,34400.00
2018-05-14T14:06:11.072Z,19392.00
2018-05-14T14:10:46.540Z,28640.00
2018-05-14T14:12:18.358Z,28768.00
2018-05-14T14:13:50.811Z,37568.00
2018-05-14T14:15:22.936Z,32352.00
2018-05-14T14:16:54.386Z,32544.00
2018-05-14T14:18:26.174Z,25504.00
2018-05-14T14:19:57.465Z,29728.00
2018-05-14T14:21:29.592Z,27520.00
2018-05-14T14:24:33.545Z,29536.00
2018-05-14T14:26:04.754Z,29632.00
2018-05-14T14:27:37.513Z,29728.00
2018-05-14T14:29:08.958Z,30272.00
2018-05-14T14:30:40.767Z,18720.00
2018-05-14T14:32:12.142Z,31008.00
2018-05-14T14:33:44.396Z,26336.00
2018-05-14T14:35:15.684Z,15724.00
2018-05-14T14:38:19.357Z,29760.00
2018-05-14T14:39:51.148Z,16716.00
2018-05-14T14:41:22.970Z,19456.00
2018-05-14T14:44:26.616Z,18944.00
2018-05-14T14:45:58.433Z,36224.00
2018-05-14T14:47:30.559Z,17628.00
2018-05-14T14:49:02.076Z,37248.00
2018-05-14T14:50:34.754Z,41056.00
2018-05-14T14:52:06.854Z,35808.00
2018-05-14T14:53:37.747Z,33120.00
2018-05-14T14:55:09.367Z,41568.00
2018-05-14T14:56:41.181Z,27680.00
2018-05-14T14:58:13.010Z,20928.00
2018-05-14T14:59:44.825Z,33728.00
2018-05-14T15:01:17.177Z,20960.00
2018-05-14T15:02:48.670Z,21056.00
2018-05-14T15:04:20.289Z,56672.00
2018-05-14T15:05:52.109Z,37088.00
2018-05-14T15:07:23.930Z,31776.00
2018-05-14T15:08:56.431Z,56192.00
2018-05-14T15:10:27.571Z,21536.00
2018-05-14T15:11:59.420Z,36128.00
2018-05-14T15:15:03.483Z,20416.00
2018-05-14T15:16:34.850Z,74464.00
2018-05-14T15:18:06.669Z,72480.00
2018-05-14T15:19:38.492Z,54752.00
2018-05-14T15:21:10.316Z,79744.00
2018-05-14T15:22:42.134Z,71232.00
2018-05-14T15:27:18.302Z,70144.00
2018-05-14T15:28:49.416Z,37312.00
2018-05-14T15:30:21.242Z,71072.00
2018-05-14T15:31:53.077Z,67840.00
2018-05-14T15:33:24.884Z,67520.00
2018-05-14T15:34:56.717Z,71424.00
2018-05-14T15:36:28.530Z,71488.00
2018-05-14T15:38:00.353Z,69504.00
2018-05-14T15:41:04.014Z,65344.00
2018-05-14T15:42:35.823Z,67424.00
2018-05-14T15:44:07.646Z,66656.00
2018-05-14T15:45:39.471Z,29856.00
2018-05-14T15:47:11.395Z,63136.00
2018-05-14T15:48:43.917Z,25216.00
2018-05-14T15:53:23.069Z,66688.00
2018-05-14T15:56:22.874Z,61792.00
2018-05-14T15:57:54.785Z,64800.00
2018-05-14T15:59:25.875Z,68608.00
2018-05-14T16:00:58.349Z,73248.00
2018-05-14T16:04:27.623Z,75040.00
2018-05-14T16:07:38.754Z,71552.00
2018-05-14T16:08:36.819Z,68576.00
2018-05-14T16:10:08.673Z,66240.00
2018-05-14T16:11:41.158Z,64096.00
2018-05-14T16:13:12.288Z,64704.00
2018-05-14T16:14:44.150Z,67424.00
2018-05-14T16:16:15.937Z,68576.00
2018-05-14T16:17:47.862Z,66592.00
2018-05-14T16:19:19.587Z,65120.00
2018-05-14T16:20:51.462Z,61696.00
2018-05-14T16:22:23.238Z,62560.00
2018-05-14T16:29:28.836Z,57184.00
2018-05-14T16:30:15.287Z,57536.00
2018-05-14T16:33:30.550Z,58944.00
2018-05-14T16:34:49.639Z,59456.00
2018-05-14T16:36:21.464Z,56544.00
2018-05-14T16:37:53.294Z,57568.00
2018-05-14T16:39:25.112Z,56672.00
2018-05-14T16:40:57.152Z,57344.00
2018-05-14T16:42:28.759Z,56800.00
2018-05-14T16:44:00.583Z,57600.00
2018-05-14T16:45:32.409Z,58752.00
2018-05-14T16:47:04.232Z,60256.00
2018-05-14T16:48:36.158Z,58880.00
2018-05-14T16:50:07.885Z,57120.00
2018-05-14T16:51:39.900Z,58912.00
2018-05-14T16:53:12.749Z,58016.00
2018-05-14T16:54:44.953Z,57216.00
2018-05-14T16:56:15.213Z,53248.00
2018-05-14T16:57:47.058Z,53312.00
2018-05-14T17:00:50.756Z,17388.00
2018-05-14T17:02:22.682Z,25984.00
2018-05-14T17:03:54.734Z,22816.00
2018-05-14T17:05:26.124Z,17312.00
2018-05-14T17:06:57.947Z,36160.00
2018-05-14T17:08:29.771Z,24704.00
2018-05-14T17:10:01.798Z,40384.00
2018-05-14T17:13:05.767Z,20128.00
2018-05-14T17:14:37.271Z,22432.00
2018-05-14T17:16:08.882Z,28128.00
2018-05-14T17:17:41.359Z,44640.00
2018-05-14T17:20:44.956Z,37664.00
2018-05-14T17:22:16.752Z,23872.00
2018-05-14T17:23:47.993Z,38976.00
2018-05-14T17:25:19.816Z,48224.00
2018-05-14T17:26:51.639Z,43552.00
2018-05-14T17:28:23.970Z,26560.00
2018-05-14T17:29:55.952Z,31520.00
2018-05-14T17:31:27.104Z,21824.00
2018-05-14T17:32:58.928Z,21376.00
2018-05-14T17:34:30.953Z,49664.00
2018-05-14T17:36:02.578Z,51136.00
2018-05-14T17:37:34.495Z,51680.00
2018-05-14T17:39:06.225Z,51584.00
2018-05-14T17:40:38.040Z,49216.00
2018-05-14T17:42:09.863Z,49312.00
2018-05-14T17:43:41.788Z,49824.00
2018-05-14T17:45:13.510Z,48352.00
2018-05-14T17:46:45.356Z,46880.00
2018-05-14T17:48:17.157Z,22880.00
2018-05-14T17:49:48.978Z,37152.00
2018-05-14T17:52:53.282Z,36032.00
2018-05-14T17:54:24.485Z,40192.00
2018-05-14T17:55:56.373Z,17728.00
2018-05-14T17:57:28.097Z,17216.00
2018-05-14T18:00:31.744Z,35744.00
2018-05-14T18:03:35.389Z,26720.00
2018-05-14T18:05:07.265Z,22560.00
2018-05-14T18:06:39.034Z,16560.00
2018-05-14T18:08:10.857Z,25824.00
2018-05-14T18:09:42.837Z,19744.00
2018-05-14T18:12:47.738Z,16460.00
2018-05-14T18:15:51.491Z,34176.00
2018-05-14T18:17:23.021Z,17664.00
2018-05-14T18:20:26.364Z,14044.00
2018-05-14T18:21:57.979Z,14016.00
2018-05-14T18:23:29.906Z,29664.00
2018-05-14T18:25:00.997Z,18240.00
2018-05-14T18:26:32.713Z,14220.00
2018-05-14T18:28:04.532Z,17888.00
2018-05-14T18:29:36.352Z,16428.00
2018-05-14T18:31:08.191Z,23360.00
2018-05-14T18:32:39.993Z,16556.00
2018-05-14T18:34:11.916Z,29024.00
2018-05-14T18:35:43.636Z,26976.00
2018-05-14T18:37:15.659Z,20544.00
2018-05-14T18:38:47.272Z,19776.00
2018-05-14T18:40:19.095Z,23968.00
2018-05-14T18:41:50.914Z,21152.00
2018-05-14T18:43:22.800Z,21984.00
2018-05-14T18:44:54.553Z,19264.00
2018-05-14T18:46:26.462Z,20320.00
2018-05-14T18:47:58.195Z,21248.00
2018-05-14T18:49:30.017Z,20704.00
2018-05-14T18:51:01.845Z,20128.00
2018-05-14T18:52:33.755Z,19072.00
2018-05-14T18:54:05.476Z,21568.00
2018-05-14T18:55:37.416Z,21568.00
2018-05-14T18:57:09.232Z,20832.00
2018-05-14T18:58:40.935Z,20928.00
2018-05-14T19:00:12.756Z,19744.00
2018-05-14T19:01:44.576Z,18336.00
2018-05-14T19:03:16.396Z,17824.00
2018-05-14T19:04:49.541Z,16960.00
2018-05-14T19:07:52.463Z,13120.00
2018-05-14T19:09:23.675Z,14720.00
2018-05-14T19:10:55.597Z,12368.00
2018-05-14T19:12:27.387Z,15200.00
2018-05-14T19:13:59.134Z,15264.00
2018-05-14T19:15:30.984Z,14816.00
2018-05-14T19:17:02.773Z,13680.00
2018-05-14T19:18:34.905Z,9560.00
2018-05-14T19:20:06.412Z,11864.00
2018-05-14T19:21:38.229Z,10372.00
2018-05-14T19:23:10.049Z,9416.00
2018-05-14T19:24:41.867Z,9284.00
2018-05-14T19:26:13.684Z,8672.00
2018-05-14T19:27:45.504Z,8248.00
2018-05-14T19:29:17.424Z,7056.00
2018-05-14T19:30:49.161Z,6160.00
2018-05-14T19:32:21.009Z,6080.00
2018-05-14T19:33:52.776Z,6168.00
2018-05-14T19:35:24.898Z,6944.00
2018-05-14T19:36:56.415Z,6724.00
2018-05-14T19:38:28.269Z,6248.00
2018-05-14T19:40:00.045Z,6252.00
2018-05-14T19:41:31.865Z,5996.00
2018-05-14T19:43:03.720Z,5840.00
2018-05-14T19:44:36.022Z,5720.00
2018-05-14T19:46:07.313Z,5404.00
2018-05-14T19:47:39.330Z,5508.00
2018-05-14T19:49:11.108Z,5296.00
2018-05-14T19:52:14.579Z,4508.00
2018-05-14T19:53:46.427Z,4364.00
2018-05-14T19:55:18.217Z,4132.00
2018-05-14T19:56:50.085Z,3864.00
2018-05-14T19:58:21.844Z,3668.00
2018-05-14T19:59:53.659Z,3472.00
2018-05-14T20:01:25.474Z,3332.00
2018-05-14T20:02:57.289Z,2896.00
2018-05-14T20:04:29.112Z,2820.00
2018-05-14T20:06:01.026Z,2516.00
2018-05-14T20:07:32.737Z,2192.00
2018-05-14T20:09:04.653Z,1860.00
2018-05-14T20:10:36.367Z,1620.00
2018-05-14T20:12:08.180Z,1428.00
2018-05-14T20:13:39.994Z,1204.00
2018-05-14T20:15:11.811Z,1036.00
2018-05-14T20:16:43.622Z,960.00
2018-05-14T20:18:15.462Z,964.00
2018-05-14T20:19:47.251Z,932.00
2018-05-14T20:21:19.116Z,808.00
2018-05-14T20:22:50.958Z,688.00
2018-05-14T20:24:22.820Z,568.00
2018-05-14T20:25:54.509Z,496.00
2018-05-14T20:27:26.325Z,424.00
2018-05-14T20:28:58.209Z,360.00
2018-05-14T20:30:29.950Z,288.00
2018-05-14T20:32:01.766Z,240.00
2018-05-14T20:33:33.580Z,196.00
2018-05-14T20:35:05.393Z,176.00
2018-05-14T20:36:37.945Z,144.00
2018-05-14T20:38:09.021Z,104.00
2018-05-14T20:39:41.074Z,76.00
2018-05-14T20:41:12.798Z,56.00
2018-05-14T20:42:44.837Z,40.00